Strathmere, NJ (08248)

4:30 AM EDT on March 27, 2015 (GMT -0400)
Upper Township, Cape May County | | Change Station
CLOSE
Current Station
Personal Weather Station
Location: Seaville, NJ
Elevation: 20 ft
Nearby Weather Stations

Elev 20 ft 39.20 °N, 74.71 °W | Updated 13 seconds ago

Overcast
Overcast
45.1 °F
Feels Like 43 °F
N
4.0
Wind Variable Wind from NNW
Gusts 9.0 mph

Today
High -- | Low -- °F
--% Chance of Precip.
Yesterday
High -- | Low -- °F
Precip. -- in
6:51 AM 7:17 PM
Waxing Crescent, 50% visible
Pressure 29.70 in
Visibility 10.0 miles
Clouds Mostly Cloudy 2300 ft
Overcast 4000 ft
Windchill 43 °F
Dew Point 44 °F
Humidity 95%
Rainfall 0.02 in
Snow Depth Not available.
UV 0 out of 12
Pollen .90 out of 12
Air Quality Not available.
Flu Activity Not available.
METAR KWWD 270815Z AUTO 34009G16KT 10SM BKN023 OVC040 07/04 A2970 RMK AO1

More Conditions Fewer Conditions

Pressure 29.70 in
Visibility 10.0 miles
Clouds Mostly Cloudy 2300 ft
Overcast 4000 ft
Windchill 43 °F
Dew Point 44 °F
Humidity 95%
Rainfall 0.02 in
Snow Depth Not available.
UV 0 out of 12
Pollen .90 out of 12
Air Quality Not available.
Flu Activity Not available.
METAR KWWD 270815Z AUTO 34009G16KT 10SM BKN023 OVC040 07/04 A2970 RMK AO1

More Conditions Fewer Conditions

Nowcast | as of 4:14 am EDT on March 27, 2015

Between now and 600 am, scattered light rain showers will continue to fall in the Maryland counties of Queen Anne's, Talbot and Caroline, in central and southern Delaware, and in much of southern New Jersey. The adjacent coastal waters will be affected, as well. Additional rainfall is expected to be a few hundredths of an inch.

×

10-Day Weather Forecast

Almanac

Astronomy

Mar. 27, 2015 Rise Set
Actual Time
Civil Twilight
Nautical Twilight
Astronomical Twilight
Moon
Length of Visible Light
Length of Day
Tomorrow will be .
, % of the Moon is Illuminated

Today's Extremes

State Highs State Lows

Community

WunderPhotos

Upload Photos

1,808,705 photos uploaded!

WunderBlogs® & News

Nearby

Air Quality

  Air Quality AQ Index Pollutant
Not available.

Snow Depth

Station Depth Elevation

Earthquake Activity

City Distance Mag. Time & Date
Minimum magnitude displayed is 2.5.

Coastal Water Temperatures

Place Temperature

Stations

Nearby Weather Stations

Station Location Temp. Windchill Dew Point Humidity Wind Precip. Elev Updated Type